Time;durP1;ratioP1;P1;durP2;ratioP2;P2;SDS_P1;SDS_P2;PMS_P1;PMS_P2;Temp;Humidity;BMP_temperature;BMP_pressure;BME280_temperature;BME280_humidity;BME280_pressure;Samples;Min_cycle;Max_cycle;Signal;HPM_P1;HPM_P2
2023/08/28 00:01:48;;;;;;;14.75;9.13;;;;;;;11.60;100.00;100295.22;4991871;28;20246;-74
2023/08/28 00:04:13;;;;;;;15.07;9.10;;;;;;;11.55;100.00;100299.47;4992025;28;20034;-74
2023/08/28 00:06:38;;;;;;;12.00;8.53;;;;;;;11.62;100.00;100295.88;4991623;28;20042;-74
2023/08/28 00:09:04;;;;;;;14.93;8.90;;;;;;;11.59;100.00;100288.25;5008872;28;20029;-74
2023/08/28 00:11:29;;;;;;;13.77;8.33;;;;;;;11.60;100.00;100289.06;4991442;28;20085;-74
2023/08/28 00:13:55;;;;;;;12.53;7.90;;;;;;;11.62;100.00;100292.38;4995680;28;20100;-74
2023/08/28 00:16:20;;;;;;;10.20;7.17;;;;;;;11.57;100.00;100292.09;4992114;28;20489;-74
2023/08/28 00:18:45;;;;;;;17.03;8.87;;;;;;;11.59;100.00;100290.91;5006343;28;20072;-74
2023/08/28 00:21:11;;;;;;;10.97;7.03;;;;;;;11.53;100.00;100285.44;5008356;28;20041;-74
2023/08/28 00:23:36;;;;;;;11.70;8.03;;;;;;;11.52;100.00;100286.44;4990772;28;20064;-74
2023/08/28 00:26:02;;;;;;;14.87;8.07;;;;;;;11.52;100.00;100291.78;4993418;28;20061;-74
2023/08/28 00:28:27;;;;;;;12.68;8.05;;;;;;;11.49;100.00;100287.63;4979312;28;20037;-74
2023/08/28 00:30:52;;;;;;;14.07;8.80;;;;;;;11.47;100.00;100291.50;4997867;28;20061;-74
2023/08/28 00:33:18;;;;;;;10.53;7.73;;;;;;;11.46;100.00;100293.34;5004448;28;20564;-74
2023/08/28 00:35:43;;;;;;;12.20;7.43;;;;;;;11.47;100.00;100292.34;4976766;28;20042;-74
2023/08/28 00:38:10;;;;;;;11.80;8.33;;;;;;;11.48;100.00;100290.50;4968787;28;20355;-74
2023/08/28 00:40:41;;;;;;;10.35;6.90;;;;;;;11.44;100.00;100282.00;4974708;28;20042;-74
2023/08/28 00:43:08;;;;;;;11.85;7.88;;;;;;;11.45;100.00;100281.00;5007435;28;20033;-74
2023/08/28 00:45:39;;;;;;;15.18;7.97;;;;;;;11.43;100.00;100280.34;4974305;28;20108;-74
2023/08/28 00:48:04;;;;;;;13.43;7.55;;;;;;;11.34;100.00;100274.22;4989449;28;20578;-74
2023/08/28 00:50:30;;;;;;;12.27;7.15;;;;;;;11.31;100.00;100282.63;4988230;28;20017;-74
2023/08/28 00:52:56;;;;;;;12.13;8.15;;;;;;;11.40;100.00;100296.72;5002072;28;20519;-74
2023/08/28 00:55:21;;;;;;;12.53;8.73;;;;;;;11.37;100.00;100289.91;5020645;28;20513;-74
2023/08/28 00:57:47;;;;;;;11.25;7.35;;;;;;;11.37;100.00;100295.25;5003770;28;20068;-74
2023/08/28 01:00:12;;;;;;;11.90;7.60;;;;;;;11.33;100.00;100295.78;5002051;28;20124;-73
2023/08/28 01:02:41;;;;;;;11.38;7.15;;;;;;;11.35;100.00;100293.75;4987147;28;20049;-74
2023/08/28 01:05:08;;;;;;;9.82;7.43;;;;;;;11.40;100.00;100294.91;4975349;28;20040;-74
2023/08/28 01:07:58;;;;;;;12.60;7.45;;;;;;;11.36;100.00;100300.78;5004061;28;20501;-74
2023/08/28 01:10:35;;;;;;;9.68;7.05;;;;;;;11.41;100.00;100296.56;4986911;28;20073;-74
2023/08/28 01:13:31;;;;;;;16.60;8.52;;;;;;;11.43;100.00;100293.72;4986495;28;20409;-74
2023/08/28 01:15:59;;;;;;;13.23;7.43;;;;;;;11.46;100.00;100284.50;5001714;28;20396;-74
2023/08/28 01:18:26;;;;;;;12.07;7.70;;;;;;;11.48;100.00;100280.63;5003946;28;20021;-74
2023/08/28 01:20:53;;;;;;;11.02;7.57;;;;;;;11.54;100.00;100282.59;4970925;28;20037;-74
2023/08/28 01:23:26;;;;;;;10.40;6.75;;;;;;;11.50;100.00;100275.13;4986861;28;20548;-74
2023/08/28 01:25:53;;;;;;;10.05;7.25;;;;;;;11.48;100.00;100271.78;5003462;28;20408;-74
2023/08/28 01:28:20;;;;;;;12.52;7.13;;;;;;;11.54;100.00;100279.06;4987566;28;20560;-74
2023/08/28 01:30:45;;;;;;;11.73;8.23;;;;;;;11.51;100.00;100269.56;5003227;28;20028;-74
2023/08/28 01:33:11;;;;;;;14.10;7.87;;;;;;;11.51;100.00;100266.09;5006955;28;20030;-74
2023/08/28 01:35:36;;;;;;;12.60;8.13;;;;;;;11.51;100.00;100260.72;5003049;28;20053;-74
2023/08/28 01:38:19;;;;;;;13.80;7.90;;;;;;;11.57;100.00;100262.69;4970426;28;20037;-74
2023/08/28 01:41:07;;;;;;;11.30;7.22;;;;;;;11.57;100.00;100268.03;4986634;28;20504;-74
2023/08/28 01:43:48;;;;;;;12.38;7.65;;;;;;;11.63;100.00;100269.97;4982216;28;20037;-74
2023/08/28 01:46:15;;;;;;;14.80;8.35;;;;;;;11.62;100.00;100281.69;4998821;28;20134;-74
2023/08/28 01:48:44;;;;;;;9.80;7.63;;;;;;;11.56;100.00;100277.06;4990867;28;20156;-74
2023/08/28 01:51:09;;;;;;;11.32;7.95;;;;;;;11.63;100.00;100291.38;5000640;28;20034;-74
2023/08/28 01:53:35;;;;;;;18.23;8.27;;;;;;;11.62;100.00;100279.03;4986341;28;20022;-74
2023/08/28 01:56:06;;;;;;;14.07;8.85;;;;;;;11.74;100.00;100288.25;4974187;28;20049;-73
2023/08/28 01:58:38;;;;;;;12.55;8.55;;;;;;;11.87;100.00;100297.50;5002213;28;20038;-74
2023/08/28 02:01:03;;;;;;;10.18;8.35;;;;;;;11.86;100.00;100290.50;4986019;28;20034;-73
2023/08/28 02:03:30;;;;;;;14.53;8.17;;;;;;;11.84;100.00;100280.81;4994461;28;20374;-74
2023/08/28 02:05:58;;;;;;;17.55;9.77;;;;;;;11.81;100.00;100277.69;5006027;28;20044;-74
2023/08/28 02:08:24;;;;;;;14.25;9.13;;;;;;;11.76;100.00;100275.53;4995057;28;20515;-74
2023/08/28 02:10:51;;;;;;;14.65;9.20;;;;;;;11.88;100.00;100285.84;4993363;28;20022;-74
2023/08/28 02:13:16;;;;;;;15.38;8.52;;;;;;;11.91;100.00;100272.09;4990529;28;20121;-74
2023/08/28 02:15:41;;;;;;;12.27;9.20;;;;;;;11.77;100.00;100265.66;4989825;28;20176;-74
2023/08/28 02:18:07;;;;;;;12.57;9.87;;;;;;;11.85;100.00;100262.94;5005886;28;20396;-74
2023/08/28 02:20:32;;;;;;;14.63;9.67;;;;;;;11.88;100.00;100262.59;4986807;28;20489;-74
2023/08/28 02:22:59;;;;;;;17.05;10.35;;;;;;;11.81;100.00;100251.75;4986792;28;20442;-73
2023/08/28 02:25:24;;;;;;;13.32;9.77;;;;;;;11.89;100.00;100244.69;4990519;28;20072;-74
2023/08/28 02:27:50;;;;;;;15.13;9.90;;;;;;;11.96;100.00;100243.78;5006653;28;20041;-74
2023/08/28 02:30:16;;;;;;;16.75;9.68;;;;;;;12.00;100.00;100241.56;5022564;28;20110;-74
2023/08/28 02:32:42;;;;;;;13.10;9.88;;;;;;;11.98;100.00;100243.59;4973136;28;20029;-73
2023/08/28 02:35:08;;;;;;;12.18;10.45;;;;;;;12.00;100.00;100241.56;4988804;28;20503;-74
2023/08/28 02:37:33;;;;;;;12.32;9.45;;;;;;;12.06;100.00;100248.00;5005713;28;20464;-74
2023/08/28 02:39:59;;;;;;;13.40;9.55;;;;;;;12.03;100.00;100250.06;4987345;28;20042;-74
2023/08/28 02:42:24;;;;;;;17.17;11.55;;;;;;;12.05;100.00;100271.28;5008866;28;20040;-74
2023/08/28 02:44:50;;;;;;;15.97;9.50;;;;;;;12.18;100.00;100274.16;5001977;28;20491;-74
2023/08/28 02:47:15;;;;;;;16.02;9.02;;;;;;;12.11;100.00;100273.22;5005360;28;20041;-74
2023/08/28 02:49:41;;;;;;;12.83;9.20;;;;;;;12.13;100.00;100268.53;5005377;28;20041;-74
2023/08/28 02:52:08;;;;;;;11.40;8.88;;;;;;;12.10;100.00;100265.38;5003657;28;20217;-74
2023/08/28 02:54:33;;;;;;;12.63;10.23;;;;;;;12.19;100.00;100262.41;4972856;28;20120;-73
2023/08/28 02:56:59;;;;;;;14.13;10.57;;;;;;;12.26;100.00;100259.81;5019306;28;20489;-74
2023/08/28 02:59:25;;;;;;;11.02;8.73;;;;;;;12.25;100.00;100250.97;5019899;28;20651;-74
2023/08/28 03:01:50;;;;;;;12.57;8.57;;;;;;;12.30;100.00;100257.63;4974635;28;20408;-74
2023/08/28 03:04:15;;;;;;;14.37;9.23;;;;;;;12.37;100.00;100250.50;5007310;28;20025;-73
2023/08/28 03:06:41;;;;;;;10.63;8.87;;;;;;;12.40;100.00;100250.13;4972747;28;20393;-73
2023/08/28 03:09:12;;;;;;;14.80;9.77;;;;;;;12.35;100.00;100252.53;5004191;28;20120;-74
2023/08/28 03:11:38;;;;;;;18.27;9.77;;;;;;;12.30;100.00;100245.06;4988256;28;20040;-74
2023/08/28 03:14:04;;;;;;;12.80;9.25;;;;;;;12.29;100.00;100256.81;4999174;28;20026;-74
2023/08/28 03:16:30;;;;;;;11.13;7.97;;;;;;;12.40;100.00;100258.16;4971505;28;20034;-74
2023/08/28 03:18:55;;;;;;;10.23;8.25;;;;;;;12.36;100.00;100256.88;5003859;28;20374;-74
2023/08/28 03:21:20;;;;;;;15.37;8.37;;;;;;;12.37;100.00;100253.19;5005893;28;20093;-74
2023/08/28 03:23:46;;;;;;;12.60;8.50;;;;;;;12.36;100.00;100243.47;4987611;28;20049;-74
2023/08/28 03:26:11;;;;;;;14.87;9.60;;;;;;;12.36;100.00;100240.81;4987654;28;20480;-74
2023/08/28 03:28:37;;;;;;;12.10;8.50;;;;;;;12.35;100.00;100250.69;5004208;28;20128;-74
2023/08/28 03:31:02;;;;;;;11.30;8.73;;;;;;;12.35;100.00;100257.91;4987065;28;20045;-74
2023/08/28 03:33:28;;;;;;;12.23;9.13;;;;;;;12.34;100.00;100253.53;5003873;28;20033;-74
2023/08/28 03:35:53;;;;;;;11.70;8.70;;;;;;;12.36;100.00;100263.06;4987632;28;20366;-74
2023/08/28 03:38:19;;;;;;;9.53;8.17;;;;;;;12.35;100.00;100264.06;5004162;28;20440;-74
2023/08/28 03:40:45;;;;;;;11.60;8.38;;;;;;;12.38;100.00;100281.59;5003860;28;20033;-74
2023/08/28 03:43:11;;;;;;;17.02;9.82;;;;;;;12.38;100.00;100287.78;4986220;28;20353;-74
2023/08/28 03:45:37;;;;;;;11.68;8.98;;;;;;;12.40;100.00;100279.56;4990479;28;20064;-74
2023/08/28 03:48:03;;;;;;;15.20;7.50;;;;;;;12.39;100.00;100281.44;4973575;28;20071;-74
2023/08/28 03:50:30;;;;;;;12.48;8.95;;;;;;;12.42;100.00;100282.91;5017975;28;20517;-74
2023/08/28 03:52:57;;;;;;;13.50;8.35;;;;;;;12.49;100.00;100288.34;4986873;28;20038;-74
2023/08/28 03:55:23;;;;;;;13.38;9.35;;;;;;;12.51;100.00;100289.81;5005470;28;20034;-74
2023/08/28 03:57:50;;;;;;;10.85;8.15;;;;;;;12.45;100.00;100291.41;4980160;28;20118;-73
2023/08/28 04:00:16;;;;;;;9.77;8.05;;;;;;;12.48;100.00;100295.56;5003943;28;20014;-74
2023/08/28 04:02:41;;;;;;;9.23;7.57;;;;;;;12.51;100.00;100295.19;4985799;28;20046;-74
2023/08/28 04:05:07;;;;;;;11.93;8.18;;;;;;;12.53;100.00;100301.19;4988866;28;20053;-74
2023/08/28 04:07:33;;;;;;;15.25;8.50;;;;;;;12.51;100.00;100294.34;4995519;28;20028;-74
2023/08/28 04:10:00;;;;;;;11.48;8.25;;;;;;;12.53;100.00;100300.34;4997969;28;20034;-74
2023/08/28 04:12:26;;;;;;;13.02;7.72;;;;;;;12.55;100.00;100304.50;4988470;28;20120;-74
2023/08/28 04:14:51;;;;;;;12.40;8.20;;;;;;;12.55;100.00;100304.50;4977899;28;20029;-75
2023/08/28 04:17:17;;;;;;;10.73;6.83;;;;;;;12.59;100.00;100303.09;4990757;28;20032;-74
2023/08/28 04:19:42;;;;;;;12.20;7.93;;;;;;;12.58;100.00;100300.63;4978670;28;20606;-74
2023/08/28 04:22:08;;;;;;;10.82;7.57;;;;;;;12.63;100.00;100308.94;4991598;28;20100;-73
2023/08/28 04:24:33;;;;;;;11.00;8.15;;;;;;;12.64;100.00;100307.91;4999924;28;20087;-73
2023/08/28 04:26:59;;;;;;;12.80;7.80;;;;;;;12.63;100.00;100303.56;4993739;28;20092;-74
2023/08/28 04:29:24;;;;;;;9.87;6.80;;;;;;;12.65;100.00;100315.75;5017897;28;20394;-74
2023/08/28 04:31:49;;;;;;;10.30;7.03;;;;;;;12.72;100.00;100326.56;5007833;28;20029;-74
2023/08/28 04:34:15;;;;;;;10.40;7.47;;;;;;;12.84;100.00;100329.59;4987962;28;20041;-74
2023/08/28 04:36:40;;;;;;;11.45;7.88;;;;;;;12.88;100.00;100322.84;5003608;28;20044;-74
2023/08/28 04:39:06;;;;;;;12.63;8.45;;;;;;;12.96;100.00;100330.75;4970232;28;20033;-74
2023/08/28 04:41:32;;;;;;;10.77;7.30;;;;;;;13.00;100.00;100326.69;5018716;28;20034;-74
2023/08/28 04:43:58;;;;;;;12.75;7.55;;;;;;;13.05;100.00;100324.25;5011233;28;20042;-74
2023/08/28 04:46:25;;;;;;;13.07;7.97;;;;;;;12.87;100.00;100321.16;4989207;28;20079;-74
2023/08/28 04:48:50;;;;;;;10.70;7.65;;;;;;;12.81;100.00;100329.97;5018963;28;20038;-73
2023/08/28 04:51:16;;;;;;;11.87;8.20;;;;;;;12.75;100.00;100328.03;4986720;28;20041;-74
2023/08/28 04:53:41;;;;;;;10.10;7.93;;;;;;;12.77;100.00;100340.22;4993566;28;20511;-74
2023/08/28 04:56:06;;;;;;;14.33;8.07;;;;;;;12.82;100.00;100345.00;4990061;28;20034;-74
2023/08/28 04:58:33;;;;;;;11.20;7.47;;;;;;;12.84;100.00;100351.00;5000756;28;20512;-74
2023/08/28 05:01:00;;;;;;;13.82;7.60;;;;;;;12.81;100.00;100362.13;4991348;28;20048;-74
2023/08/28 05:03:25;;;;;;;12.30;8.82;;;;;;;12.84;100.00;100361.72;4973945;28;20488;-74
2023/08/28 05:05:51;;;;;;;;;;;;;;;12.91;100.00;100359.97;5013309;28;20022;-73
2023/08/28 05:08:17;;;;;;;7.72;6.63;;;;;;;12.84;100.00;100375.13;5023035;28;19975;-74
2023/08/28 05:10:43;;;;;;;;;;;;;;;12.89;100.00;100368.19;5003550;28;20044;-74
2023/08/28 05:13:08;;;;;;;;;;;;;;;12.85;100.00;100382.13;4997327;28;20124;-74
2023/08/28 05:15:34;;;;;;;12.13;8.00;;;;;;;12.88;100.00;100384.47;4979417;28;20015;-74
2023/08/28 05:18:00;;;;;;;12.05;7.22;;;;;;;12.81;100.00;100383.53;5002641;28;20554;-74
2023/08/28 05:20:26;;;;;;;11.07;7.53;;;;;;;12.84;100.00;100385.84;5022849;28;20018;-74
2023/08/28 05:22:52;;;;;;;23.20;8.40;;;;;;;13.13;100.00;100387.63;5016760;28;20457;-73
2023/08/28 05:25:17;;;;;;;11.87;7.17;;;;;;;13.22;100.00;100391.03;5008177;28;20084;-74
2023/08/28 05:27:43;;;;;;;9.07;6.88;;;;;;;13.32;100.00;100372.81;5000498;28;20149;-73
2023/08/28 05:30:10;;;;;;;11.80;6.25;;;;;;;13.55;100.00;100371.84;4995697;28;20038;-74
2023/08/28 05:32:36;;;;;;;7.38;6.50;;;;;;;13.58;100.00;100363.41;4993100;28;20029;-74
2023/08/28 05:35:03;;;;;;;16.23;6.20;;;;;;;13.63;100.00;100355.63;4987901;28;20049;-74
2023/08/28 05:37:29;;;;;;;11.60;7.38;;;;;;;13.50;100.00;100341.06;4987035;28;20064;-73
2023/08/28 05:39:54;;;;;;;10.80;7.43;;;;;;;13.47;100.00;100338.75;4988383;28;20124;-73
2023/08/28 05:42:20;;;;;;;11.30;7.00;;;;;;;13.57;100.00;100332.25;4986619;28;20061;-73
2023/08/28 05:44:46;;;;;;;9.82;6.15;;;;;;;13.77;100.00;100327.91;4989475;28;20300;-75
2023/08/28 05:47:12;;;;;;;11.73;5.77;;;;;;;13.85;100.00;100319.69;4990284;28;20030;-74
2023/08/28 05:49:37;;;;;;;8.10;5.23;;;;;;;13.99;100.00;100303.72;4989942;28;20902;-75
2023/08/28 05:52:04;;;;;;;10.10;4.97;;;;;;;14.66;100.00;100308.47;4990022;28;20033;-75
2023/08/28 05:54:29;;;;;;;7.78;4.28;;;;;;;15.26;100.00;100291.69;4990509;28;20014;-75
2023/08/28 05:56:55;;;;;;;16.37;4.67;;;;;;;14.65;100.00;100276.41;4988439;28;20095;-75
2023/08/28 05:59:20;;;;;;;6.50;3.97;;;;;;;15.02;100.00;100263.53;4976242;28;20365;-74
2023/08/28 06:01:46;;;;;;;9.00;4.07;;;;;;;14.68;100.00;100266.13;5004888;28;20042;-74
2023/08/28 06:04:12;;;;;;;8.52;3.70;;;;;;;14.63;100.00;100262.34;4989322;28;20165;-74
2023/08/28 06:06:40;;;;;;;7.77;3.90;;;;;;;14.54;100.00;100267.91;4972877;28;20132;-75
2023/08/28 06:09:07;;;;;;;4.60;3.75;;;;;;;14.34;100.00;100262.41;5005274;28;20026;-73
2023/08/28 06:11:33;;;;;;;5.20;3.88;;;;;;;14.38;100.00;100256.66;4973034;28;20481;-75
2023/08/28 06:13:59;;;;;;;7.07;3.70;;;;;;;14.72;100.00;100261.16;4989125;28;20038;-73
2023/08/28 06:16:24;;;;;;;;;;;;;;;14.60;100.00;100244.78;5008189;28;20030;-75
2023/08/28 06:18:50;;;;;;;5.40;3.40;;;;;;;14.97;100.00;100248.81;5006199;28;19909;-74
2023/08/28 06:21:16;;;;;;;;;;;;;;;15.31;100.00;100271.25;5020013;28;20128;-76
2023/08/28 06:23:42;;;;;;;5.65;2.92;;;;;;;15.46;100.00;100233.38;5009085;28;19995;-75
2023/08/28 06:26:07;;;;;;;4.97;2.27;;;;;;;15.57;100.00;100238.13;4978592;28;20113;-75
2023/08/28 06:28:34;;;;;;;5.28;2.70;;;;;;;16.03;100.00;100215.72;4982858;28;20027;-74
2023/08/28 06:31:01;;;;;;;3.63;2.40;;;;;;;16.30;100.00;100201.38;5005066;28;20030;-75
2023/08/28 06:33:26;;;;;;;5.53;2.28;;;;;;;16.12;100.00;100167.84;5002079;28;20042;-72
2023/08/28 06:35:51;;;;;;;2.57;1.60;;;;;;;16.01;100.00;100176.59;5004281;28;20140;-75
2023/08/28 06:38:17;;;;;;;4.03;1.80;;;;;;;16.12;100.00;100183.19;5006436;28;20036;-76
2023/08/28 06:40:48;;;;;;;4.17;1.87;;;;;;;16.30;100.00;100161.78;4989276;28;20918;-76
2023/08/28 06:43:14;;;;;;;5.60;2.20;;;;;;;16.17;100.00;100162.66;5007861;28;20370;-75
2023/08/28 06:45:39;;;;;;;4.00;1.53;;;;;;;16.53;100.00;100165.78;5008884;28;20037;-75
2023/08/28 06:48:04;;;;;;;3.10;1.60;;;;;;;17.13;100.00;100117.72;5004285;28;20554;-75
2023/08/28 06:50:30;;;;;;;5.65;1.30;;;;;;;16.71;100.00;100093.13;5007941;28;20936;-75
2023/08/28 06:52:56;;;;;;;6.17;1.57;;;;;;;16.45;100.00;100132.69;5001405;28;20026;-76
2023/08/28 06:55:21;;;;;;;2.30;1.63;;;;;;;16.75;100.00;100105.13;5005172;28;20118;-75
2023/08/28 06:57:47;;;;;;;4.17;1.33;;;;;;;16.24;100.00;100087.22;5020933;28;20053;-75
2023/08/28 07:00:13;;;;;;;;;;;;;;;16.83;100.00;100123.78;5019563;28;20485;-74
2023/08/28 07:02:38;;;;;;;5.57;1.38;;;;;;;15.98;100.00;100037.84;4987821;28;19914;-73
2023/08/28 07:05:04;;;;;;;3.73;1.23;;;;;;;16.63;100.00;100145.44;5002238;28;20465;-74
2023/08/28 07:07:29;;;;;;;3.17;1.60;;;;;;;16.34;100.00;100109.13;5004333;28;20112;-75
2023/08/28 07:09:55;;;;;;;5.77;1.57;;;;;;;17.28;100.00;100120.91;5004298;28;20025;-74
2023/08/28 07:12:20;;;;;;;2.87;0.93;;;;;;;16.41;100.00;100015.63;5007152;28;20061;-74
2023/08/28 07:15:16;;;;;;;4.10;1.70;;;;;;;16.50;100.00;100072.75;5005105;28;20500;-75
2023/08/28 07:17:41;;;;;;;5.57;1.45;;;;;;;16.31;100.00;100131.09;4994578;28;20052;-75
2023/08/28 07:20:07;;;;;;;2.93;1.20;;;;;;;17.03;100.00;100196.41;5002862;28;20031;-75
2023/08/28 07:22:32;;;;;;;3.90;1.17;;;;;;;17.42;100.00;100101.88;4986995;28;20987;-75
2023/08/28 07:24:57;;;;;;;3.27;1.00;;;;;;;18.46;100.00;100050.56;5002377;28;20048;-75
2023/08/28 07:27:23;;;;;;;3.77;1.20;;;;;;;18.32;100.00;99948.06;4993565;28;20043;-75
2023/08/28 07:29:48;;;;;;;2.27;0.87;;;;;;;17.89;100.00;99878.94;5000623;28;20030;-73
2023/08/28 07:32:13;;;;;;;4.47;0.90;;;;;;;18.02;100.00;99971.59;4987799;28;20738;-73
2023/08/28 07:34:39;;;;;;;2.43;1.40;;;;;;;18.04;100.00;99892.00;5011504;28;20033;-75
2023/08/28 07:37:05;;;;;;;4.73;1.10;;;;;;;18.23;100.00;99890.00;5003490;28;20065;-75
2023/08/28 07:39:30;;;;;;;5.75;1.00;;;;;;;18.29;100.00;99856.66;5006458;28;20038;-75
2023/08/28 07:41:59;;;;;;;5.67;1.00;;;;;;;17.97;100.00;99826.47;5000837;28;20029;-74
2023/08/28 07:44:24;;;;;;;4.28;1.25;;;;;;;17.91;100.00;99833.63;5000172;28;20029;-75
2023/08/28 07:46:50;;;;;;;3.42;1.00;;;;;;;17.90;100.00;99750.16;5015944;28;20442;-75
2023/08/28 07:49:15;;;;;;;3.90;2.00;;;;;;;18.47;100.00;99811.66;5003517;28;20416;-74
2023/08/28 07:51:40;;;;;;;7.20;1.00;;;;;;;18.89;100.00;99758.19;5005208;28;20392;-75
2023/08/28 07:54:06;;;;;;;3.83;0.80;;;;;;;18.97;100.00;99676.69;5016901;28;20096;-74
2023/08/28 07:56:31;;;;;;;5.13;0.90;;;;;;;19.82;100.00;99745.22;5003369;28;20372;-76
2023/08/28 07:58:57;;;;;;;3.50;0.60;;;;;;;19.49;100.00;99539.50;5001625;28;20505;-75
2023/08/28 08:01:22;;;;;;;2.23;0.70;;;;;;;19.21;100.00;99411.41;5002077;28;20034;-75
2023/08/28 08:03:48;;;;;;;2.97;0.82;;;;;;;18.62;100.00;99413.81;4984644;28;20580;-75
2023/08/28 08:06:13;;;;;;;4.17;0.83;;;;;;;18.49;100.00;99510.38;5000649;28;20197;-73
2023/08/28 08:08:38;;;;;;;5.80;2.03;;;;;;;18.76;100.00;99705.25;5005587;28;20463;-74
2023/08/28 08:11:04;;;;;;;3.83;0.80;;;;;;;18.90;100.00;99473.22;5021515;28;20028;-75
2023/08/28 08:13:29;;;;;;;4.53;0.67;;;;;;;17.95;100.00;99447.84;5005163;28;20030;-75
2023/08/28 08:15:55;;;;;;;2.13;0.70;;;;;;;19.17;100.00;99735.75;5010815;28;20041;-76
2023/08/28 08:18:20;;;;;;;3.97;0.87;;;;;;;19.94;100.00;99562.81;4993002;28;20030;-75
2023/08/28 08:20:45;;;;;;;4.97;1.10;;;;;;;20.01;100.00;99350.25;4976254;28;20381;-75
2023/08/28 08:23:11;;;;;;;3.33;0.70;;;;;;;19.26;100.00;99268.06;5003310;28;20033;-75
2023/08/28 08:25:36;;;;;;;6.03;1.27;;;;;;;19.78;100.00;99256.66;5004904;28;20481;-74
2023/08/28 08:28:02;;;;;;;3.53;1.08;;;;;;;20.44;100.00;99291.50;5000421;28;20064;-74
2023/08/28 08:30:28;;;;;;;1.60;0.88;;;;;;;20.34;100.00;99226.38;5002508;28;20562;-75
2023/08/28 08:32:53;;;;;;;2.85;1.00;;;;;;;20.69;100.00;99216.78;5002911;28;20038;-73
2023/08/28 08:35:19;;;;;;;1.63;0.70;;;;;;;20.62;100.00;99317.34;5003887;28;20037;-74
2023/08/28 08:37:46;;;;;;;3.20;0.68;;;;;;;20.34;100.00;99385.47;4984863;28;20022;-75
2023/08/28 08:40:13;;;;;;;3.67;0.60;;;;;;;19.61;100.00;99104.34;5000509;28;20540;-75
2023/08/28 08:42:39;;;;;;;1.60;0.50;;;;;;;19.72;100.00;99257.69;5001550;28;20334;-74
2023/08/28 08:45:05;;;;;;;1.10;0.50;;;;;;;20.14;100.00;99378.00;4982180;28;20183;-74
2023/08/28 08:47:31;;;;;;;2.17;0.43;;;;;;;20.98;100.00;99338.44;5000860;28;20025;-75
2023/08/28 08:50:01;;;;;;;2.90;0.70;;;;;;;20.96;100.00;99276.28;4999260;28;20034;-75
2023/08/28 08:52:27;;;;;;;3.03;0.95;;;;;;;20.65;100.00;99115.41;4993248;28;20069;-75
2023/08/28 08:54:59;;;;;;;3.80;0.90;;;;;;;20.36;100.00;99429.38;4998508;28;20496;-75
2023/08/28 08:57:37;;;;;;;2.30;0.63;;;;;;;21.92;100.00;99222.38;5001611;28;20088;-75
2023/08/28 09:00:11;;;;;;;1.90;0.40;;;;;;;21.11;100.00;98867.69;4982255;28;20121;-74
2023/08/28 09:02:38;;;;;;;2.08;0.70;;;;;;;20.54;100.00;99141.63;5001050;28;20030;-75
2023/08/28 09:05:05;;;;;;;3.58;0.90;;;;;;;20.31;100.00;99041.81;4998077;28;20044;-72
2023/08/28 09:07:31;;;;;;;3.00;0.52;;;;;;;21.05;100.00;99301.81;5001472;28;20515;-74
2023/08/28 09:09:57;;;;;;;3.50;0.80;;;;;;;21.02;100.00;99165.88;4998297;28;20030;-75
2023/08/28 09:12:22;;;;;;;5.07;0.60;;;;;;;20.24;100.00;99042.88;5015620;28;20579;-75
2023/08/28 09:14:48;;;;;;;1.63;0.77;;;;;;;20.47;100.00;99485.31;4998612;28;20382;-73
2023/08/28 09:17:13;;;;;;;1.63;0.93;;;;;;;21.61;100.00;99349.19;4999734;28;20045;-73
2023/08/28 09:19:38;;;;;;;2.13;0.63;;;;;;;21.03;100.00;98983.84;5001267;28;20474;-74
2023/08/28 09:22:04;;;;;;;4.40;0.80;;;;;;;21.50;100.00;99205.28;4998923;28;20559;-75
2023/08/28 09:24:30;;;;;;;1.98;0.57;;;;;;;20.44;100.00;98884.91;5001278;28;20064;-74
2023/08/28 09:26:55;;;;;;;2.03;0.70;;;;;;;20.06;100.00;99241.13;4999589;28;20038;-74
2023/08/28 09:29:22;;;;;;;3.55;0.52;;;;;;;19.35;100.00;99214.31;5000324;28;20033;-74
2023/08/28 09:31:48;;;;;;;2.45;0.70;;;;;;;18.99;100.00;99416.81;5015307;28;20029;-75
2023/08/28 09:34:14;;;;;;;;;;;;;;;19.01;100.00;99628.34;4982184;28;20038;-74
2023/08/28 09:36:42;;;;;;;3.72;0.60;;;;;;;20.44;100.00;99751.50;5016096;28;20391;-74
2023/08/28 09:39:07;;;;;;;1.73;0.77;;;;;;;21.70;100.00;99502.38;4998380;28;20030;-74
2023/08/28 09:41:40;;;;;;;2.90;0.77;;;;;;;21.63;100.00;98969.56;5000887;28;20041;-73
2023/08/28 09:44:05;;;;;;;1.40;0.70;;;;;;;20.85;100.00;98830.63;4980852;28;20046;-74
2023/08/28 09:46:31;;;;;;;2.85;0.93;;;;;;;21.01;100.00;99042.19;5000722;28;20033;-75
2023/08/28 09:48:57;;;;;;;2.78;0.60;;;;;;;20.49;100.00;99021.53;4997719;28;20042;-75
2023/08/28 09:51:37;;;;;;;2.58;0.70;;;;;;;19.98;100.00;99239.72;4982420;28;20512;-75
2023/08/28 09:54:04;;;;;;;5.70;1.20;;;;;;;20.72;100.00;99365.44;4999214;28;20694;-74
2023/08/28 09:56:31;;;;;;;2.60;1.10;;;;;;;20.41;100.00;98998.47;5014191;28;20025;-73
2023/08/28 09:59:01;;;;;;;1.80;0.82;;;;;;;20.06;100.00;99130.06;5000688;28;20428;-74
2023/08/28 10:01:30;;;;;;;8.07;1.25;;;;;;;19.98;100.00;99570.19;5010646;28;20033;-74
2023/08/28 10:03:56;;;;;;;3.47;1.02;;;;;;;19.56;100.00;99862.28;5020635;28;20103;-73
2023/08/28 10:06:24;;;;;;;2.97;0.60;;;;;;;18.93;100.00;99778.31;5006968;28;20048;-74
2023/08/28 10:08:52;;;;;;;1.50;0.40;;;;;;;18.81;100.00;100202.06;5006425;28;20041;-73
2023/08/28 10:11:18;;;;;;;3.92;0.90;;;;;;;18.51;100.00;100242.59;5000634;28;20030;-73
2023/08/28 10:13:44;;;;;;;2.75;0.50;;;;;;;18.42;100.00;100233.94;5001672;28;20044;-73
2023/08/28 10:16:13;;;;;;;3.67;0.88;;;;;;;17.98;100.00;100156.75;5004497;28;20047;-74
2023/08/28 10:18:44;;;;;;;2.83;0.63;;;;;;;17.80;100.00;100225.88;5022253;28;20040;-75
2023/08/28 10:21:09;;;;;;;1.55;0.80;;;;;;;17.69;100.00;100391.28;5021685;28;20042;-74
2023/08/28 10:23:35;;;;;;;2.50;0.60;;;;;;;17.64;100.00;100410.00;5001707;28;20071;-73
2023/08/28 10:26:02;;;;;;;4.87;1.00;;;;;;;17.76;100.00;100445.22;4987770;28;20125;-74
2023/08/28 10:28:29;;;;;;;1.30;0.70;;;;;;;17.51;100.00;100211.19;5015879;28;20291;-74
2023/08/28 10:30:55;;;;;;;2.40;0.90;;;;;;;17.59;100.00;100294.59;5010739;28;20040;-74
2023/08/28 10:33:25;;;;;;;1.55;0.50;;;;;;;17.83;100.00;100301.06;5027592;28;20083;-74
2023/08/28 10:35:53;;;;;;;2.78;0.98;;;;;;;17.93;100.00;100319.47;5005607;28;20037;-75
2023/08/28 10:38:23;;;;;;;0.95;0.73;;;;;;;17.40;100.00;100363.03;5028060;28;20037;-74
2023/08/28 10:40:50;;;;;;;2.13;0.60;;;;;;;17.72;100.00;100380.03;5027586;28;20032;-74
2023/08/28 10:43:19;;;;;;;0.60;0.60;;;;;;;17.78;100.00;100281.16;5007385;28;20396;-74
2023/08/28 10:45:46;;;;;;;3.83;0.45;;;;;;;17.96;100.00;100324.44;5010269;28;20472;-74
2023/08/28 10:48:12;;;;;;;2.47;0.40;;;;;;;18.86;100.00;100388.81;5027989;28;20609;-74
2023/08/28 10:50:38;;;;;;;1.38;0.88;;;;;;;20.79;100.00;100273.84;5027928;28;20041;-74
2023/08/28 10:53:04;;;;;;;2.03;0.70;;;;;;;20.79;100.00;99927.47;5027370;28;20041;-75
2023/08/28 10:55:30;;;;;;;;;;;;;;;20.06;100.00;99684.59;5028210;28;20084;-74
2023/08/28 10:58:00;;;;;;;2.78;0.82;;;;;;;18.98;100.00;99643.16;5025174;28;20264;-74
2023/08/28 11:00:27;;;;;;;0.98;0.75;;;;;;;19.38;100.00;99763.97;5003539;28;20079;-74
2023/08/28 11:03:09;;;;;;;1.75;0.60;;;;;;;19.35;100.00;99886.25;5002946;28;20113;-74
2023/08/28 11:05:37;;;;;;;1.13;0.60;;;;;;;19.17;100.00;100063.13;5024806;28;20105;-74
2023/08/28 11:08:11;;;;;;;0.52;0.52;;;;;;;19.34;100.00;100108.44;5020277;28;20933;-73
2023/08/28 11:10:37;;;;;;;1.17;0.60;;;;;;;19.22;100.00;100178.75;5017495;28;20076;-74
2023/08/28 11:13:08;;;;;;;2.47;1.00;;;;;;;19.68;100.00;100143.81;5006127;28;20024;-74
2023/08/28 11:15:41;;;;;;;2.20;0.98;;;;;;;21.52;100.00;99988.94;5014789;28;20467;-74